createdAt,value
2022-12-03T00:04:57.732Z,50.30
2022-12-03T00:10:04.805Z,50.20
2022-12-03T00:15:13.420Z,39.70
2022-12-03T00:20:23.133Z,45.10
2022-12-03T00:25:30.354Z,43.20
2022-12-03T00:30:37.337Z,51.30
2022-12-03T00:35:44.175Z,51.40
2022-12-03T00:40:51.045Z,36.60
2022-12-03T00:45:57.964Z,51.10
2022-12-03T00:51:04.959Z,49.10
2022-12-03T00:56:13.642Z,44.50
2022-12-03T01:01:21.180Z,46.40
2022-12-03T01:06:28.504Z,53.50
2022-12-03T01:11:41.555Z,44.10
2022-12-03T01:16:49.380Z,47.40
2022-12-03T01:21:57.000Z,40.60
2022-12-03T01:27:03.863Z,48.10
2022-12-03T01:32:18.116Z,43.30
2022-12-03T01:37:27.244Z,39.70
2022-12-03T01:42:36.872Z,41.90
2022-12-03T01:47:43.848Z,41.90
2022-12-03T01:52:50.765Z,35.40
2022-12-03T01:58:00.652Z,37.00
2022-12-03T02:03:13.044Z,22.40
2022-12-03T02:08:34.744Z,39.30
2022-12-03T02:13:41.708Z,38.80
2022-12-03T02:18:49.049Z,44.60
2022-12-03T02:24:06.244Z,40.40
2022-12-03T02:29:13.476Z,44.90
2022-12-03T02:34:38.556Z,36.70
2022-12-03T02:39:48.716Z,38.90
2022-12-03T02:45:00.661Z,40.10
2022-12-03T02:50:13.495Z,49.00
2022-12-03T02:55:21.181Z,38.90
2022-12-03T03:00:28.216Z,41.70
2022-12-03T03:05:37.473Z,37.30
2022-12-03T03:10:45.629Z,35.00
2022-12-03T03:15:53.440Z,40.00
2022-12-03T03:21:00.307Z,45.60
2022-12-03T03:26:10.770Z,40.20
2022-12-03T03:31:22.702Z,40.80
2022-12-03T03:36:29.691Z,39.00
2022-12-03T03:41:38.082Z,45.20
2022-12-03T03:46:45.322Z,45.30
2022-12-03T03:51:52.375Z,54.50
2022-12-03T03:56:59.379Z,45.60
2022-12-03T04:02:06.279Z,46.80
2022-12-03T04:07:13.103Z,47.10
2022-12-03T04:12:37.621Z,38.20
2022-12-03T04:17:44.460Z,48.40
2022-12-03T04:22:51.369Z,48.40
2022-12-03T04:28:24.141Z,43.90
2022-12-03T04:33:48.904Z,49.70
2022-12-03T04:38:55.752Z,48.40
2022-12-03T04:44:19.496Z,44.80
2022-12-03T04:49:26.379Z,44.30
2022-12-03T04:54:33.439Z,48.40
2022-12-03T04:59:40.359Z,40.70
2022-12-03T05:04:47.306Z,49.90
2022-12-03T05:09:56.090Z,46.70
2022-12-03T05:15:02.975Z,46.30
2022-12-03T05:20:30.193Z,47.00
2022-12-03T05:25:37.083Z,45.50
2022-12-03T05:30:44.336Z,45.30
2022-12-03T05:35:51.219Z,34.50
2022-12-03T05:40:58.130Z,39.30
2022-12-03T05:46:05.030Z,52.70
2022-12-03T05:51:11.951Z,50.50
2022-12-03T05:56:18.862Z,49.00
2022-12-03T06:01:26.072Z,47.70
2022-12-03T06:06:33.011Z,46.40
2022-12-03T06:11:40.805Z,48.00
2022-12-03T06:16:47.691Z,47.20
2022-12-03T06:21:54.509Z,43.10
2022-12-03T06:27:01.368Z,52.00
2022-12-03T06:32:08.678Z,53.90
2022-12-03T06:37:15.710Z,47.70
2022-12-03T06:42:22.667Z,45.50
2022-12-03T06:47:29.577Z,50.80
2022-12-03T06:52:36.893Z,49.70
2022-12-03T06:57:43.775Z,48.80
2022-12-03T07:02:50.843Z,58.60
2022-12-03T07:07:57.765Z,50.50
2022-12-03T07:13:04.750Z,48.20
2022-12-03T07:18:11.593Z,51.10
2022-12-03T07:23:18.513Z,48.10
2022-12-03T07:28:25.453Z,47.50
2022-12-03T07:33:32.491Z,41.00
2022-12-03T07:38:39.611Z,47.90
2022-12-03T07:43:46.573Z,51.90
2022-12-03T07:48:53.618Z,48.70
2022-12-03T07:54:00.639Z,49.00
2022-12-03T07:59:07.578Z,49.10
2022-12-03T08:04:15.025Z,46.60
2022-12-03T08:09:21.940Z,48.00
2022-12-03T08:14:30.904Z,45.90
2022-12-03T08:19:37.780Z,45.20
2022-12-03T08:24:45.284Z,50.20
2022-12-03T08:29:55.298Z,47.20
2022-12-03T08:35:10.368Z,45.60
2022-12-03T08:40:34.634Z,44.30
2022-12-03T08:45:44.384Z,46.80
2022-12-03T08:50:51.462Z,48.50
2022-12-03T08:56:00.843Z,52.30
2022-12-03T09:01:26.122Z,54.50
2022-12-03T09:06:33.052Z,51.10
2022-12-03T09:11:40.569Z,47.50
2022-12-03T09:16:48.030Z,47.30
2022-12-03T09:21:55.565Z,44.80
2022-12-03T09:27:02.457Z,48.80
2022-12-03T09:32:13.689Z,49.00
2022-12-03T09:37:23.623Z,52.70
2022-12-03T09:42:30.630Z,48.70
2022-12-03T09:47:37.762Z,50.60
2022-12-03T09:52:45.318Z,48.10
2022-12-03T09:57:52.345Z,42.40
2022-12-03T10:03:03.108Z,48.80
2022-12-03T10:08:12.809Z,46.10
2022-12-03T10:13:26.065Z,50.10
2022-12-03T10:18:41.191Z,43.90
2022-12-03T10:23:55.182Z,44.80
2022-12-03T10:29:02.356Z,42.30
2022-12-03T10:34:10.201Z,45.60
2022-12-03T10:39:18.081Z,29.30
2022-12-03T10:49:33.068Z,42.60
2022-12-03T10:54:39.969Z,53.30
2022-12-03T10:59:47.126Z,53.20
2022-12-03T11:04:55.593Z,52.50
2022-12-03T11:10:02.861Z,41.50
2022-12-03T11:15:17.873Z,49.60
2022-12-03T11:21:06.672Z,42.80
2022-12-03T11:26:18.903Z,49.40
2022-12-03T11:31:42.053Z,35.30
2022-12-03T11:37:20.241Z,50.90
2022-12-03T11:42:41.858Z,48.20
2022-12-03T11:48:03.024Z,50.60
2022-12-03T11:53:18.103Z,47.30
2022-12-03T11:58:27.968Z,52.10
2022-12-03T12:03:37.345Z,52.30
2022-12-03T12:08:57.935Z,49.70
2022-12-03T12:14:05.844Z,55.00
2022-12-03T12:24:48.558Z,52.90
2022-12-03T12:29:58.212Z,50.20
2022-12-03T12:35:17.065Z,54.40
2022-12-03T12:40:26.944Z,55.70
2022-12-03T12:45:41.274Z,53.60
2022-12-03T12:50:50.029Z,55.50
2022-12-03T12:55:59.879Z,34.60
2022-12-03T13:01:13.649Z,57.10
2022-12-03T13:06:24.860Z,57.30
2022-12-03T13:11:41.365Z,56.30
2022-12-03T13:16:49.545Z,53.70
2022-12-03T13:21:58.133Z,51.80
2022-12-03T13:27:21.586Z,63.50
2022-12-03T13:32:32.533Z,57.60
2022-12-03T13:38:02.907Z,57.10
2022-12-03T13:43:15.460Z,55.30
2022-12-03T13:48:25.365Z,54.40
2022-12-03T13:53:41.258Z,57.00
2022-12-03T13:58:48.170Z,56.30
2022-12-03T14:03:55.272Z,62.20
2022-12-03T14:09:02.227Z,59.70
2022-12-03T14:14:09.217Z,56.80
2022-12-03T14:19:16.122Z,59.00
2022-12-03T14:24:22.996Z,58.90
2022-12-03T14:29:30.087Z,55.10
2022-12-03T14:34:36.957Z,53.90
2022-12-03T14:39:43.973Z,67.10
2022-12-03T14:44:52.399Z,59.60
2022-12-03T14:50:00.035Z,59.50
2022-12-03T14:55:07.538Z,55.70
2022-12-03T15:00:18.179Z,54.60
2022-12-03T15:05:28.821Z,53.70
2022-12-03T15:10:36.307Z,58.50
2022-12-03T15:15:43.506Z,62.30
2022-12-03T15:20:50.706Z,60.70
2022-12-03T15:25:57.660Z,59.40
2022-12-03T15:31:04.619Z,58.50
2022-12-03T15:36:12.273Z,56.30
2022-12-03T15:41:24.372Z,54.80
2022-12-03T15:46:32.200Z,53.80
2022-12-03T15:56:44.400Z,59.00
2022-12-03T16:01:51.493Z,61.30
2022-12-03T16:06:58.328Z,57.00
2022-12-03T16:12:05.717Z,57.40
2022-12-03T16:17:12.543Z,55.10
2022-12-03T16:22:19.611Z,58.60
2022-12-03T16:27:26.457Z,53.70
2022-12-03T16:32:33.317Z,59.20
2022-12-03T16:37:40.623Z,58.00
2022-12-03T16:42:47.681Z,56.20
2022-12-03T16:47:54.715Z,52.00
2022-12-03T16:53:01.722Z,55.70
2022-12-03T16:58:09.299Z,54.90
2022-12-03T17:03:17.975Z,49.80
2022-12-03T17:08:25.116Z,63.10
2022-12-03T17:13:31.985Z,55.70
2022-12-03T17:18:38.803Z,57.10
2022-12-03T17:23:48.957Z,55.50
2022-12-03T17:28:55.803Z,54.50
2022-12-03T17:34:02.727Z,54.10
2022-12-03T17:39:09.633Z,52.00
2022-12-03T17:44:20.980Z,58.10
2022-12-03T17:49:31.577Z,63.50
2022-12-03T17:55:08.526Z,59.60
2022-12-03T18:00:06.984Z,58.40
2022-12-03T18:05:19.465Z,54.90
2022-12-03T18:10:26.499Z,56.20
2022-12-03T18:15:34.033Z,59.10
2022-12-03T18:20:41.188Z,60.10
2022-12-03T18:25:48.064Z,65.00
2022-12-03T18:30:55.080Z,62.00
2022-12-03T18:36:02.006Z,58.60
2022-12-03T18:41:09.017Z,57.90
2022-12-03T18:46:45.109Z,58.40
2022-12-03T18:51:44.462Z,55.10
2022-12-03T18:56:51.517Z,59.10
2022-12-03T19:01:58.503Z,67.60
2022-12-03T19:07:05.419Z,63.40
2022-12-03T19:12:14.734Z,56.90
2022-12-03T19:17:22.619Z,56.30
2022-12-03T19:22:29.988Z,54.60
2022-12-03T19:27:36.965Z,58.20
2022-12-03T19:32:45.358Z,58.70
2022-12-03T19:37:52.413Z,70.80
2022-12-03T19:42:59.342Z,65.30
2022-12-03T19:48:06.692Z,62.10
2022-12-03T19:53:13.544Z,60.90
2022-12-03T19:58:20.407Z,61.40
2022-12-03T20:03:27.237Z,55.40
2022-12-03T20:08:37.392Z,60.40
2022-12-03T20:13:49.276Z,70.00
2022-12-03T20:19:02.191Z,67.00
2022-12-03T20:24:11.476Z,63.30
2022-12-03T20:29:18.378Z,67.10
2022-12-03T20:34:25.374Z,61.80
2022-12-03T20:39:32.674Z,59.70
2022-12-03T20:44:39.659Z,65.00
2022-12-03T20:49:46.582Z,75.60
2022-12-03T20:54:53.450Z,71.50
2022-12-03T21:00:00.370Z,67.30
2022-12-03T21:05:08.021Z,62.00
2022-12-03T21:10:29.264Z,67.30
2022-12-03T21:15:36.151Z,67.40
2022-12-03T21:20:43.912Z,56.50
2022-12-03T21:25:59.362Z,72.10
2022-12-03T21:31:12.624Z,66.50
2022-12-03T21:36:19.855Z,68.30
2022-12-03T21:41:29.788Z,65.90
2022-12-03T21:47:12.136Z,62.30
2022-12-03T21:52:03.569Z,68.50
2022-12-03T21:57:10.585Z,65.30
2022-12-03T22:02:17.530Z,75.40
2022-12-03T22:07:24.579Z,73.20
2022-12-03T22:12:31.786Z,67.00
2022-12-03T22:17:39.252Z,70.60
2022-12-03T22:22:46.531Z,70.80
2022-12-03T22:27:53.416Z,68.90
2022-12-03T22:33:00.275Z,73.30
2022-12-03T22:38:07.133Z,67.20
2022-12-03T22:43:13.986Z,68.10
2022-12-03T22:48:20.919Z,71.40
2022-12-03T22:53:27.781Z,70.10
2022-12-03T22:58:34.904Z,70.90
2022-12-03T23:03:41.836Z,76.50
2022-12-03T23:08:48.934Z,72.60
2022-12-03T23:13:56.412Z,71.40
2022-12-03T23:19:04.865Z,66.90
2022-12-03T23:24:12.810Z,66.70
2022-12-03T23:34:24.975Z,66.00
2022-12-03T23:39:31.926Z,75.40
2022-12-03T23:44:39.229Z,66.40
2022-12-03T23:49:46.141Z,67.00
2022-12-03T23:54:52.991Z,67.70
2022-12-03T23:59:59.871Z,61.50
